createdAt,value
2022-12-14T00:00:49.140Z,99018.31
2022-12-14T00:01:54.262Z,99017.41
2022-12-14T00:02:58.192Z,99012.25
2022-12-14T00:04:02.126Z,99012.22
2022-12-14T00:05:07.587Z,99011.41
2022-12-14T00:06:20.231Z,99010.56
2022-12-14T00:07:24.295Z,99010.50
2022-12-14T00:08:28.946Z,99011.47
2022-12-14T00:09:32.665Z,99008.97
2022-12-14T00:10:38.966Z,99016.72
2022-12-14T00:11:42.668Z,99012.44
2022-12-14T00:12:46.609Z,99008.97
2022-12-14T00:14:01.423Z,99011.50
2022-12-14T00:15:06.155Z,99011.56
2022-12-14T00:16:16.618Z,99012.44
2022-12-14T00:17:20.598Z,99015.06
2022-12-14T00:18:24.681Z,99010.81
2022-12-14T00:19:28.638Z,99007.34
2022-12-14T00:20:34.364Z,99008.28
2022-12-14T00:21:38.085Z,99007.38
2022-12-14T00:22:42.779Z,99009.16
2022-12-14T00:23:53.040Z,99010.94
2022-12-14T00:24:56.981Z,99011.84
2022-12-14T00:26:18.020Z,99013.66
2022-12-14T00:27:22.232Z,99009.34
2022-12-14T00:28:26.571Z,99009.34
2022-12-14T00:29:30.544Z,99009.41
2022-12-14T00:30:34.208Z,99016.31
2022-12-14T00:31:37.932Z,99000.75
2022-12-14T00:32:41.843Z,99006.00
2022-12-14T00:33:45.959Z,99010.31
2022-12-14T00:34:49.531Z,99002.47
2022-12-14T00:35:53.407Z,99006.78
2022-12-14T00:36:57.287Z,99001.63
2022-12-14T00:38:00.771Z,99003.38
2022-12-14T00:39:05.288Z,99000.81
2022-12-14T00:40:10.599Z,99004.25
2022-12-14T00:41:14.486Z,99001.66
2022-12-14T00:42:19.033Z,99003.38
2022-12-14T00:43:23.802Z,98999.06
2022-12-14T00:44:27.475Z,99001.75
2022-12-14T00:45:31.349Z,99003.50
2022-12-14T00:46:34.962Z,99003.50
2022-12-14T00:47:40.846Z,99014.78
2022-12-14T00:48:45.132Z,99007.06
2022-12-14T00:49:49.047Z,99011.34
2022-12-14T00:50:56.036Z,99017.47
2022-12-14T00:52:00.225Z,99001.97
2022-12-14T00:53:04.623Z,99013.19
2022-12-14T00:54:12.182Z,99002.88
2022-12-14T00:55:15.894Z,99010.63
2022-12-14T00:56:19.778Z,99014.97
2022-12-14T00:57:23.524Z,99008.94
2022-12-14T00:58:28.089Z,99012.38
2022-12-14T00:59:32.148Z,99008.09
2022-12-14T01:00:35.828Z,99008.06
2022-12-14T01:01:40.036Z,99007.25
2022-12-14T01:02:43.827Z,99002.94
2022-12-14T01:03:48.508Z,99002.97
2022-12-14T01:04:52.726Z,98999.50
2022-12-14T01:05:56.732Z,99009.03
2022-12-14T01:07:01.084Z,99002.97
2022-12-14T01:08:05.761Z,98994.41
2022-12-14T01:09:10.878Z,98998.78
2022-12-14T01:10:14.446Z,99001.38
2022-12-14T01:11:19.152Z,98999.66
2022-12-14T01:12:23.773Z,98991.91
2022-12-14T01:13:27.800Z,99001.41
2022-12-14T01:14:31.874Z,99001.44
2022-12-14T01:15:36.161Z,98997.94
2022-12-14T01:16:40.607Z,98998.81
2022-12-14T01:17:44.596Z,98997.94
2022-12-14T01:18:48.606Z,98997.06
2022-12-14T01:19:52.392Z,99002.28
2022-12-14T01:20:55.992Z,99001.44
2022-12-14T01:21:59.993Z,99005.72
2022-12-14T01:23:03.800Z,99004.88
2022-12-14T01:24:08.936Z,98998.03
2022-12-14T01:25:12.872Z,98994.59
2022-12-14T01:26:18.466Z,98989.44
2022-12-14T01:27:22.507Z,98997.22
2022-12-14T01:28:26.089Z,98989.47
2022-12-14T01:29:29.901Z,98991.19
2022-12-14T01:30:33.600Z,98986.88
2022-12-14T01:31:39.258Z,98987.75
2022-12-14T01:32:43.446Z,98987.78
2022-12-14T01:33:48.657Z,98985.22
2022-12-14T01:34:52.870Z,98991.38
2022-12-14T01:35:57.019Z,98984.44
2022-12-14T01:37:00.529Z,98987.03
2022-12-14T01:38:04.385Z,98988.00
2022-12-14T01:39:15.021Z,98979.41
2022-12-14T01:40:18.578Z,98984.53
2022-12-14T01:41:26.876Z,98987.16
2022-12-14T01:42:30.472Z,98991.44
2022-12-14T01:43:52.974Z,98988.81
2022-12-14T01:44:58.991Z,98976.75
2022-12-14T01:46:03.386Z,98980.16
2022-12-14T01:47:47.425Z,98977.59
2022-12-14T01:48:54.584Z,98975.94
2022-12-14T01:50:26.058Z,98974.22
2022-12-14T01:51:32.643Z,98970.84
2022-12-14T01:52:45.437Z,98975.94
2022-12-14T01:53:50.130Z,98972.69
2022-12-14T01:55:10.214Z,98976.16
2022-12-14T01:56:14.028Z,98977.03
2022-12-14T01:57:22.936Z,98976.97
2022-12-14T01:58:29.077Z,98970.84
2022-12-14T01:59:39.913Z,98971.75
2022-12-14T02:00:44.864Z,98965.66
2022-12-14T02:01:49.606Z,98972.63
2022-12-14T02:03:17.427Z,98968.28
2022-12-14T02:04:22.469Z,98964.94
2022-12-14T02:05:26.909Z,98965.78
2022-12-14T02:06:38.077Z,98963.19
2022-12-14T02:07:43.611Z,98957.16
2022-12-14T02:08:57.749Z,98964.97
2022-12-14T02:10:06.536Z,98965.91
2022-12-14T02:11:17.926Z,98963.28
2022-12-14T02:12:31.975Z,98958.91
2022-12-14T02:13:42.635Z,98956.38
2022-12-14T02:14:47.955Z,98953.81
2022-12-14T02:15:53.919Z,98962.47
2022-12-14T02:16:58.286Z,98958.97
2022-12-14T02:18:14.226Z,98956.38
2022-12-14T02:19:18.026Z,98958.16
2022-12-14T02:20:29.363Z,98961.59
2022-12-14T02:22:20.482Z,98967.66
2022-12-14T02:24:17.064Z,98969.47
2022-12-14T02:25:54.927Z,98959.16
2022-12-14T02:27:42.823Z,98965.25
2022-12-14T02:29:13.376Z,98960.94
2022-12-14T02:30:28.734Z,98962.75
2022-12-14T02:31:51.068Z,98959.31
2022-12-14T02:33:54.780Z,98954.09
2022-12-14T02:35:37.532Z,98959.28
2022-12-14T02:37:27.919Z,98956.69
2022-12-14T02:38:34.515Z,98958.44
2022-12-14T02:39:52.760Z,98955.81
2022-12-14T02:41:09.005Z,98954.22
2022-12-14T02:42:29.752Z,98956.84
2022-12-14T02:44:03.592Z,98958.56
2022-12-14T02:45:25.525Z,98953.41
2022-12-14T02:46:47.355Z,98956.03
2022-12-14T02:48:16.702Z,98950.00
2022-12-14T02:50:02.583Z,98944.91
2022-12-14T02:51:26.550Z,98950.94
2022-12-14T02:52:42.242Z,98947.59
2022-12-14T02:54:01.280Z,98949.31
2022-12-14T02:55:11.665Z,98948.47
2022-12-14T02:56:23.666Z,98949.31
2022-12-14T02:57:39.007Z,98945.88
2022-12-14T02:58:51.409Z,98944.06
2022-12-14T03:00:01.284Z,98945.78
2022-12-14T03:01:11.668Z,98938.84
2022-12-14T03:02:16.290Z,98939.84
2022-12-14T03:03:20.277Z,98931.19
2022-12-14T03:04:24.643Z,98926.00
2022-12-14T03:05:28.941Z,98932.81
2022-12-14T03:06:32.653Z,98937.16
2022-12-14T03:07:51.364Z,98930.28
2022-12-14T03:09:08.857Z,98929.38
2022-12-14T03:10:52.471Z,98931.16
2022-12-14T03:12:08.004Z,98932.00
2022-12-14T03:13:41.381Z,98938.03
2022-12-14T03:14:52.451Z,98942.41
2022-12-14T03:16:13.420Z,98940.66
2022-12-14T03:17:28.113Z,98944.06
2022-12-14T03:18:41.520Z,98938.88
2022-12-14T03:19:55.913Z,98941.47
2022-12-14T03:21:02.979Z,98944.06
2022-12-14T03:22:38.805Z,98938.06
2022-12-14T03:23:49.005Z,98928.50
2022-12-14T03:25:12.988Z,98933.72
2022-12-14T03:26:34.903Z,98938.09
2022-12-14T03:27:49.636Z,98938.94
2022-12-14T03:29:08.563Z,98931.19
2022-12-14T03:30:43.931Z,98941.53
2022-12-14T03:31:57.384Z,98931.22
2022-12-14T03:33:15.355Z,98935.53
2022-12-14T03:34:49.884Z,98938.97
2022-12-14T03:36:11.244Z,98938.09
2022-12-14T03:37:30.630Z,98938.06
2022-12-14T03:38:42.042Z,98942.41
2022-12-14T03:39:48.023Z,98941.50
2022-12-14T03:41:04.278Z,98940.69
2022-12-14T03:42:24.058Z,98938.94
2022-12-14T03:44:17.670Z,98937.22
2022-12-14T03:45:47.671Z,98941.53
2022-12-14T03:47:13.267Z,98938.09
2022-12-14T03:48:59.598Z,98929.50
2022-12-14T03:50:48.824Z,98933.88
2022-12-14T03:52:03.393Z,98925.19
2022-12-14T03:53:29.197Z,98926.22
2022-12-14T03:54:54.487Z,98928.75
2022-12-14T03:56:11.110Z,98924.66
2022-12-14T03:57:34.803Z,98926.31
2022-12-14T03:58:42.798Z,98928.91
2022-12-14T04:00:10.674Z,98921.22
2022-12-14T04:01:45.417Z,98915.22
2022-12-14T04:03:19.202Z,98915.19
2022-12-14T04:05:06.614Z,98922.94
2022-12-14T04:06:24.843Z,98918.63
2022-12-14T04:07:41.838Z,98928.13
2022-12-14T04:09:04.276Z,98919.47
2022-12-14T04:10:36.475Z,98916.91
2022-12-14T04:12:09.949Z,98916.91
2022-12-14T04:13:43.461Z,98918.75
2022-12-14T04:15:22.477Z,98920.41
2022-12-14T04:16:55.300Z,98919.53
2022-12-14T04:18:25.322Z,98922.94
2022-12-14T04:20:23.111Z,98924.69
2022-12-14T04:21:52.085Z,98923.81
2022-12-14T04:23:11.624Z,98917.75
2022-12-14T04:25:06.750Z,98926.38
2022-12-14T04:26:17.780Z,98916.91
2022-12-14T04:27:32.874Z,98916.94
2022-12-14T04:29:11.184Z,98914.34
2022-12-14T04:30:16.073Z,98912.69
2022-12-14T04:31:25.587Z,98909.22
2022-12-14T04:32:59.727Z,98904.91
2022-12-14T04:34:07.724Z,98904.03
2022-12-14T04:35:36.324Z,98908.34
2022-12-14T04:36:49.109Z,98904.03
2022-12-14T04:38:15.806Z,98898.88
2022-12-14T04:39:31.330Z,98898.00
2022-12-14T04:40:53.479Z,98902.31
2022-12-14T04:42:03.082Z,98900.59
2022-12-14T04:43:13.795Z,98892.78
2022-12-14T04:44:31.002Z,98907.44
2022-12-14T04:45:50.866Z,98911.72
2022-12-14T04:46:57.508Z,98904.78
2022-12-14T04:48:16.771Z,98900.53
2022-12-14T04:49:48.999Z,98900.56
2022-12-14T04:51:25.604Z,98904.81
2022-12-14T04:52:41.381Z,98890.13
2022-12-14T04:53:50.583Z,98897.06
2022-12-14T04:55:27.006Z,98898.75
2022-12-14T04:56:46.355Z,98899.59
2022-12-14T04:58:14.241Z,98901.31
2022-12-14T04:59:18.266Z,98900.47
2022-12-14T05:00:22.018Z,98900.44
2022-12-14T05:02:06.093Z,98896.13
2022-12-14T05:03:28.843Z,98893.59
2022-12-14T05:05:03.816Z,98892.81
2022-12-14T05:06:42.087Z,98888.56
2022-12-14T05:08:21.902Z,98889.47
2022-12-14T05:09:40.259Z,98888.56
2022-12-14T05:10:48.957Z,98886.88
2022-12-14T05:12:15.649Z,98886.00
2022-12-14T05:13:40.762Z,98879.13
2022-12-14T05:15:03.894Z,98875.66
2022-12-14T05:16:08.757Z,98869.59
2022-12-14T05:17:12.920Z,98862.69
2022-12-14T05:18:17.924Z,98862.66
2022-12-14T05:19:26.557Z,98865.22
2022-12-14T05:20:31.078Z,98861.78
2022-12-14T05:21:52.957Z,98866.94
2022-12-14T05:22:56.816Z,98866.97
2022-12-14T05:24:04.101Z,98865.22
2022-12-14T05:25:08.213Z,98865.22
2022-12-14T05:26:11.747Z,98861.75
2022-12-14T05:27:15.762Z,98861.75
2022-12-14T05:28:19.523Z,98860.03
2022-12-14T05:29:23.154Z,98859.16
2022-12-14T05:30:27.342Z,98862.66
2022-12-14T05:31:31.508Z,98848.78
2022-12-14T05:32:36.204Z,98855.72
2022-12-14T05:33:39.818Z,98846.22
2022-12-14T05:34:43.521Z,98847.94
2022-12-14T05:35:47.398Z,98853.13
2022-12-14T05:36:51.163Z,98858.31
2022-12-14T05:37:55.107Z,98851.53
2022-12-14T05:38:58.865Z,98849.88
2022-12-14T05:40:02.533Z,98845.63
2022-12-14T05:41:06.422Z,98851.66
2022-12-14T05:42:10.756Z,98850.00
2022-12-14T05:43:14.628Z,98856.00
2022-12-14T05:44:18.148Z,98850.03
2022-12-14T05:45:21.607Z,98852.69
2022-12-14T05:46:25.413Z,98857.84
2022-12-14T05:47:28.937Z,98854.44
2022-12-14T05:48:33.690Z,98857.91
2022-12-14T05:49:37.152Z,98853.66
2022-12-14T05:50:40.630Z,98855.50
2022-12-14T05:51:44.117Z,98854.69
2022-12-14T05:52:47.566Z,98848.72
2022-12-14T05:53:51.610Z,98849.59
2022-12-14T05:54:58.266Z,98848.72
2022-12-14T05:56:08.625Z,98850.44
2022-12-14T05:57:13.164Z,98847.09
2022-12-14T05:58:16.749Z,98849.63
2022-12-14T05:59:20.556Z,98855.66
2022-12-14T06:00:24.479Z,98865.19
2022-12-14T06:01:28.604Z,98865.25
2022-12-14T06:02:32.361Z,98867.84
2022-12-14T06:03:36.067Z,98860.94
2022-12-14T06:04:40.130Z,98866.06
2022-12-14T06:05:43.677Z,98866.13
2022-12-14T06:06:47.655Z,98865.22
2022-12-14T06:07:51.634Z,98862.56
2022-12-14T06:08:55.244Z,98866.88
2022-12-14T06:09:59.474Z,98862.56
2022-12-14T06:11:23.789Z,98860.81
2022-12-14T06:12:27.437Z,98865.97
2022-12-14T06:13:31.147Z,98860.78
2022-12-14T06:14:34.873Z,98864.31
2022-12-14T06:15:38.636Z,98872.03
2022-12-14T06:16:44.752Z,98869.44
2022-12-14T06:17:48.214Z,98862.53
2022-12-14T06:18:54.932Z,98870.28
2022-12-14T06:19:58.574Z,98859.13
2022-12-14T06:21:03.553Z,98868.66
2022-12-14T06:22:07.255Z,98860.06
2022-12-14T06:23:10.773Z,98865.19
2022-12-14T06:24:14.720Z,98858.31
2022-12-14T06:25:18.511Z,98851.38
2022-12-14T06:26:23.383Z,98853.22
2022-12-14T06:27:26.932Z,98850.72
2022-12-14T06:28:30.974Z,98849.88
2022-12-14T06:29:35.305Z,98855.16
2022-12-14T06:30:38.985Z,98855.25
2022-12-14T06:31:42.987Z,98851.09
2022-12-14T06:32:46.671Z,98848.47
2022-12-14T06:33:51.738Z,98853.69
2022-12-14T06:34:56.492Z,98847.66
2022-12-14T06:36:00.783Z,98845.06
2022-12-14T06:37:04.607Z,98844.16
2022-12-14T06:38:08.681Z,98846.75
2022-12-14T06:39:16.281Z,98840.72
2022-12-14T06:40:19.771Z,98840.78
2022-12-14T06:41:25.051Z,98832.16
2022-12-14T06:42:28.886Z,98846.81
2022-12-14T06:43:32.808Z,98841.63
2022-12-14T06:44:37.508Z,98837.28
2022-12-14T06:45:41.123Z,98838.13
2022-12-14T06:46:45.090Z,98846.75
2022-12-14T06:47:49.242Z,98847.66
2022-12-14T06:48:55.604Z,98847.66
2022-12-14T06:49:59.189Z,98845.97
2022-12-14T06:51:04.680Z,98849.38
2022-12-14T06:52:08.430Z,98855.41
2022-12-14T06:53:14.220Z,98858.00
2022-12-14T06:54:19.743Z,98858.03
2022-12-14T06:55:25.058Z,98853.75
2022-12-14T06:56:28.604Z,98855.47
2022-12-14T06:57:32.351Z,98853.81
2022-12-14T06:58:36.940Z,98848.66
2022-12-14T06:59:40.512Z,98855.53
2022-12-14T07:00:44.725Z,98847.75
2022-12-14T07:01:50.064Z,98847.75
2022-12-14T07:02:55.246Z,98852.84
2022-12-14T07:03:59.814Z,98845.06
2022-12-14T07:05:04.361Z,98851.91
2022-12-14T07:06:10.577Z,98851.88
2022-12-14T07:07:14.458Z,98852.69
2022-12-14T07:08:18.236Z,98853.53
2022-12-14T07:09:23.052Z,98851.72
2022-12-14T07:10:27.247Z,98850.81
2022-12-14T07:11:32.349Z,98852.50
2022-12-14T07:12:36.313Z,98847.31
2022-12-14T07:13:41.526Z,98844.69
2022-12-14T07:14:45.349Z,98840.38
2022-12-14T07:15:54.182Z,98840.38
2022-12-14T07:16:58.584Z,98842.09
2022-12-14T07:18:02.176Z,98843.78
2022-12-14T07:19:06.526Z,98841.97
2022-12-14T07:20:10.926Z,98842.84
2022-12-14T07:21:17.120Z,98829.88
2022-12-14T07:22:20.975Z,98831.53
2022-12-14T07:23:28.102Z,98829.81
2022-12-14T07:24:32.660Z,98828.91
2022-12-14T07:25:36.767Z,98825.38
2022-12-14T07:26:40.407Z,98827.88
2022-12-14T07:27:44.118Z,98821.84
2022-12-14T07:28:49.561Z,98819.28
2022-12-14T07:29:53.761Z,98817.47
2022-12-14T07:31:01.849Z,98820.84
2022-12-14T07:32:05.987Z,98821.72
2022-12-14T07:33:10.343Z,98825.13
2022-12-14T07:34:14.643Z,98814.75
2022-12-14T07:35:18.303Z,98817.38
2022-12-14T07:36:24.715Z,98819.94
2022-12-14T07:37:28.440Z,98825.97
2022-12-14T07:38:32.834Z,98825.09
2022-12-14T07:39:36.846Z,98823.38
2022-12-14T07:40:40.454Z,98825.09
2022-12-14T07:41:47.309Z,98823.31
2022-12-14T07:42:51.409Z,98825.88
2022-12-14T07:43:55.662Z,98823.31
2022-12-14T07:45:01.277Z,98825.78
2022-12-14T07:46:08.314Z,98812.78
2022-12-14T07:47:16.532Z,98818.78
2022-12-14T07:48:20.771Z,98811.84
2022-12-14T07:49:24.211Z,98816.16
2022-12-14T07:50:27.914Z,98810.09
2022-12-14T07:51:36.853Z,98811.81
2022-12-14T07:52:40.696Z,98803.13
2022-12-14T07:53:44.897Z,98811.69
2022-12-14T07:54:48.688Z,98808.22
2022-12-14T07:55:52.448Z,98813.41
2022-12-14T07:56:56.258Z,98817.63
2022-12-14T07:58:00.037Z,98819.25
2022-12-14T07:59:06.891Z,98810.50
2022-12-14T08:00:11.476Z,98807.03
2022-12-14T08:01:31.404Z,98810.31
2022-12-14T08:02:35.048Z,98821.66
2022-12-14T08:03:41.950Z,98808.81
2022-12-14T08:04:45.713Z,98813.97
2022-12-14T08:05:49.329Z,98804.44
2022-12-14T08:06:53.111Z,98812.19
2022-12-14T08:07:56.756Z,98804.41
2022-12-14T08:09:01.429Z,98800.16
2022-12-14T08:10:05.760Z,98802.69
2022-12-14T08:11:10.602Z,98803.63
2022-12-14T08:12:14.911Z,98803.69
2022-12-14T08:13:18.879Z,98798.47
2022-12-14T08:14:23.013Z,98796.78
2022-12-14T08:15:26.956Z,98800.28
2022-12-14T08:16:31.182Z,98798.50
2022-12-14T08:17:34.843Z,98793.31
2022-12-14T08:18:38.979Z,98806.25
2022-12-14T08:19:42.601Z,98801.28
2022-12-14T08:20:53.402Z,98801.22
2022-12-14T08:21:59.946Z,98803.81
2022-12-14T08:23:03.918Z,98799.47
2022-12-14T08:24:10.357Z,98800.34
2022-12-14T08:25:14.019Z,98801.19
2022-12-14T08:26:19.493Z,98802.84
2022-12-14T08:27:23.204Z,98799.31
2022-12-14T08:28:30.041Z,98794.97
2022-12-14T08:29:33.735Z,98798.56
2022-12-14T08:30:41.150Z,98797.69
2022-12-14T08:31:44.927Z,98799.38
2022-12-14T08:32:48.545Z,98797.59
2022-12-14T08:33:54.093Z,98792.44
2022-12-14T08:34:57.702Z,98794.97
2022-12-14T08:36:14.823Z,98783.75
2022-12-14T08:37:18.862Z,98787.25
2022-12-14T08:38:22.477Z,98792.41
2022-12-14T08:39:27.057Z,98796.66
2022-12-14T08:40:31.016Z,98795.78
2022-12-14T08:41:35.321Z,98788.84
2022-12-14T08:42:39.107Z,98791.41
2022-12-14T08:43:43.054Z,98800.94
2022-12-14T08:44:46.850Z,98791.41
2022-12-14T08:45:55.911Z,98788.75
2022-12-14T08:47:00.624Z,98795.63
2022-12-14T08:48:04.936Z,98788.63
2022-12-14T08:49:09.548Z,98789.47
2022-12-14T08:50:13.981Z,98794.56
2022-12-14T08:51:18.248Z,98795.28
2022-12-14T08:52:22.698Z,98796.94
2022-12-14T08:53:26.838Z,98792.56
2022-12-14T08:54:30.595Z,98791.66
2022-12-14T08:55:38.764Z,98782.94
2022-12-14T08:56:42.573Z,98775.03
2022-12-14T08:57:46.199Z,98777.66
2022-12-14T08:58:50.586Z,98768.13
2022-12-14T09:00:02.468Z,98768.00
2022-12-14T09:01:17.685Z,98774.91
2022-12-14T09:02:21.731Z,98772.31
2022-12-14T09:03:25.577Z,98769.56
2022-12-14T09:04:29.598Z,98773.72
2022-12-14T09:05:34.975Z,98766.66
2022-12-14T09:06:39.945Z,98759.56
2022-12-14T09:07:43.551Z,98763.75
2022-12-14T09:08:49.731Z,98756.75
2022-12-14T09:09:54.442Z,98754.88
2022-12-14T09:10:58.607Z,98756.56
2022-12-14T09:12:06.733Z,98756.47
2022-12-14T09:13:13.575Z,98752.94
2022-12-14T09:14:17.350Z,98750.25
2022-12-14T09:15:22.164Z,98746.94
2022-12-14T09:16:29.052Z,98755.41
2022-12-14T09:17:32.949Z,98747.63
2022-12-14T09:18:36.996Z,98747.53
2022-12-14T09:19:42.015Z,98747.63
2022-12-14T09:20:47.510Z,98753.72
2022-12-14T09:21:53.910Z,98754.53
2022-12-14T09:22:59.071Z,98744.97
2022-12-14T09:24:03.088Z,98747.53
2022-12-14T09:25:08.412Z,98746.69
2022-12-14T09:26:16.732Z,98747.56
2022-12-14T09:27:22.633Z,98744.09
2022-12-14T09:28:30.239Z,98745.84
2022-12-14T09:29:34.153Z,98743.94
2022-12-14T09:30:38.390Z,98749.25
2022-12-14T09:31:42.606Z,98750.22
2022-12-14T09:32:50.840Z,98747.53
2022-12-14T09:33:56.055Z,98739.75
2022-12-14T09:35:01.142Z,98746.69
2022-12-14T09:36:08.778Z,98741.63
2022-12-14T09:38:39.641Z,98740.50
2022-12-14T09:39:43.410Z,98743.03
2022-12-14T09:40:58.941Z,98741.28
2022-12-14T09:42:36.364Z,98748.19
2022-12-14T09:43:47.550Z,98744.81
2022-12-14T09:45:18.349Z,98738.09
2022-12-14T09:47:00.724Z,98739.91
2022-12-14T09:48:25.655Z,98740.03
2022-12-14T09:50:16.117Z,98730.59
2022-12-14T09:51:23.127Z,98733.31
2022-12-14T09:52:59.091Z,98736.03
2022-12-14T09:54:18.788Z,98737.03
2022-12-14T09:55:31.738Z,98727.56
2022-12-14T09:56:38.516Z,98724.22
2022-12-14T09:57:49.804Z,98711.25
2022-12-14T09:58:59.346Z,98712.19
2022-12-14T10:00:05.283Z,98717.38
2022-12-14T10:01:23.822Z,98716.47
2022-12-14T10:02:48.909Z,98717.34
2022-12-14T10:04:10.439Z,98718.13
2022-12-14T10:05:32.425Z,98701.81
2022-12-14T10:07:06.048Z,98697.75
2022-12-14T10:08:22.529Z,98700.50
2022-12-14T10:10:29.322Z,98694.25
2022-12-14T10:12:34.515Z,98693.25
2022-12-14T10:14:11.787Z,98697.50
2022-12-14T10:15:25.444Z,98690.34
2022-12-14T10:17:06.477Z,98696.31
2022-12-14T10:18:58.302Z,98703.88
2022-12-14T10:20:33.723Z,98709.03
2022-12-14T10:22:10.193Z,98708.91
2022-12-14T10:23:38.704Z,98708.88
2022-12-14T10:24:51.874Z,98713.13
2022-12-14T10:26:13.403Z,98705.94
2022-12-14T10:27:26.626Z,98704.91
2022-12-14T10:28:46.877Z,98703.25
2022-12-14T10:30:08.165Z,98704.09
2022-12-14T10:31:36.148Z,98704.94
2022-12-14T10:32:49.138Z,98698.88
2022-12-14T10:34:00.480Z,98697.75
2022-12-14T10:35:14.944Z,98689.84
2022-12-14T10:36:37.149Z,98695.78
2022-12-14T10:37:53.929Z,98689.59
2022-12-14T10:39:02.474Z,98684.38
2022-12-14T10:40:33.504Z,98681.63
2022-12-14T10:41:50.455Z,98673.88
2022-12-14T10:43:39.628Z,98673.03
2022-12-14T10:45:38.970Z,98664.50
2022-12-14T10:47:00.913Z,98665.50
2022-12-14T10:48:41.482Z,98661.13
2022-12-14T10:50:07.015Z,98662.91
2022-12-14T10:51:39.238Z,98671.38
2022-12-14T10:52:47.306Z,98671.25
2022-12-14T10:54:03.689Z,98665.44
2022-12-14T10:55:19.100Z,98669.72
2022-12-14T10:56:33.296Z,98667.13
2022-12-14T10:57:36.861Z,98663.63
2022-12-14T10:58:40.740Z,98666.28
2022-12-14T11:00:08.428Z,98654.28
2022-12-14T11:01:15.839Z,98666.41
2022-12-14T11:02:23.129Z,98652.53
2022-12-14T11:03:29.195Z,98650.66
2022-12-14T11:05:04.164Z,98649.78
2022-12-14T11:06:19.859Z,98647.91
2022-12-14T11:07:40.459Z,98644.59
2022-12-14T11:08:47.991Z,98628.97
2022-12-14T11:09:53.233Z,98638.41
2022-12-14T11:11:18.650Z,98634.16
2022-12-14T11:12:28.051Z,98635.19
2022-12-14T11:13:31.736Z,98623.06
2022-12-14T11:14:37.192Z,98632.50
2022-12-14T11:15:48.262Z,98626.47
2022-12-14T11:16:52.326Z,98625.56
2022-12-14T11:18:31.278Z,98634.34
2022-12-14T11:19:37.749Z,98623.06
2022-12-14T11:21:01.203Z,98616.09
2022-12-14T11:22:21.708Z,98624.69
2022-12-14T11:23:35.979Z,98615.19
2022-12-14T11:24:48.996Z,98614.47
2022-12-14T11:26:00.976Z,98609.09
2022-12-14T11:27:06.395Z,98616.09
2022-12-14T11:28:36.483Z,98615.22
2022-12-14T11:29:47.711Z,98617.72
2022-12-14T11:31:25.445Z,98617.59
2022-12-14T11:32:29.652Z,98618.38
2022-12-14T11:33:44.288Z,98618.16
2022-12-14T11:34:58.002Z,98612.84
2022-12-14T11:36:02.935Z,98607.56
2022-12-14T11:37:22.459Z,98609.19
2022-12-14T11:38:33.307Z,98609.88
2022-12-14T11:39:42.492Z,98602.91
2022-12-14T11:40:47.614Z,98605.38
2022-12-14T11:42:04.545Z,98601.84
2022-12-14T11:43:30.112Z,98597.69
2022-12-14T11:44:38.611Z,98602.66
2022-12-14T11:45:51.341Z,98595.75
2022-12-14T11:46:58.119Z,98600.84
2022-12-14T11:48:16.367Z,98596.66
2022-12-14T11:49:39.837Z,98594.16
2022-12-14T11:50:46.133Z,98595.75
2022-12-14T11:52:04.481Z,98598.19
2022-12-14T11:53:16.397Z,98594.09
2022-12-14T11:54:22.729Z,98593.25
2022-12-14T11:55:29.088Z,98596.69
2022-12-14T11:56:36.872Z,98599.31
2022-12-14T11:57:55.665Z,98597.59
2022-12-14T11:58:59.543Z,98595.00
2022-12-14T12:00:51.592Z,98588.31
2022-12-14T12:01:56.613Z,98594.56
2022-12-14T12:03:14.163Z,98582.38
2022-12-14T12:04:18.768Z,98580.84
2022-12-14T12:05:24.131Z,98585.06
2022-12-14T12:06:31.594Z,98585.03
2022-12-14T12:07:59.609Z,98585.81
2022-12-14T12:09:29.984Z,98585.84
2022-12-14T12:10:33.954Z,98576.47
2022-12-14T12:11:47.107Z,98573.66
2022-12-14T12:13:06.320Z,98573.66
2022-12-14T12:14:36.191Z,98572.88
2022-12-14T12:15:51.218Z,98563.44
2022-12-14T12:16:55.774Z,98566.69
2022-12-14T12:18:27.927Z,98566.50
2022-12-14T12:19:38.969Z,98563.97
2022-12-14T12:21:25.232Z,98567.41
2022-12-14T12:22:31.640Z,98562.38
2022-12-14T12:23:45.984Z,98560.69
2022-12-14T12:25:25.105Z,98558.88
2022-12-14T12:26:49.827Z,98565.88
2022-12-14T12:28:14.891Z,98562.34
2022-12-14T12:29:40.808Z,98558.13
2022-12-14T12:30:51.137Z,98556.41
2022-12-14T12:32:23.997Z,98550.41
2022-12-14T12:33:44.982Z,98545.25
2022-12-14T12:35:11.003Z,98543.59
2022-12-14T12:36:24.006Z,98539.16
2022-12-14T12:38:22.464Z,98534.69
2022-12-14T12:39:30.833Z,98534.75
2022-12-14T12:41:12.923Z,98527.69
2022-12-14T12:42:35.856Z,98523.31
2022-12-14T12:43:54.691Z,98523.56
2022-12-14T12:45:29.676Z,98524.75
2022-12-14T12:47:07.184Z,98514.22
2022-12-14T12:48:52.011Z,98510.00
2022-12-14T12:50:03.758Z,98507.44
2022-12-14T12:51:16.874Z,98501.41
2022-12-14T12:52:34.407Z,98500.44
2022-12-14T12:54:06.784Z,98501.28
2022-12-14T12:55:21.205Z,98493.44
2022-12-14T12:56:48.227Z,98499.53
2022-12-14T12:57:59.350Z,98498.81
2022-12-14T12:59:06.039Z,98498.91
2022-12-14T13:00:21.642Z,98492.81
2022-12-14T13:01:39.111Z,98500.50
2022-12-14T13:03:13.269Z,98490.09
2022-12-14T13:04:38.540Z,98490.94
2022-12-14T13:05:46.616Z,98494.34
2022-12-14T13:07:15.513Z,98489.16
2022-12-14T13:08:29.220Z,98481.38
2022-12-14T13:10:05.052Z,98484.06
2022-12-14T13:11:30.257Z,98472.84
2022-12-14T13:12:42.687Z,98478.03
2022-12-14T13:14:00.499Z,98465.94
2022-12-14T13:15:34.580Z,98466.84
2022-12-14T13:16:42.227Z,98462.41
2022-12-14T13:18:02.739Z,98464.13
2022-12-14T13:20:57.253Z,98461.53
2022-12-14T13:22:07.279Z,98464.06
2022-12-14T13:23:43.453Z,98454.50
2022-12-14T13:24:45.002Z,98453.59
2022-12-14T13:26:59.023Z,98449.22
2022-12-14T13:28:37.960Z,98446.47
2022-12-14T13:30:16.538Z,98432.56
2022-12-14T13:31:51.190Z,98426.53
2022-12-14T13:33:16.769Z,98428.25
2022-12-14T13:34:54.085Z,98420.38
2022-12-14T13:36:43.242Z,98419.56
2022-12-14T13:38:32.915Z,98413.66
2022-12-14T13:39:50.627Z,98413.69
2022-12-14T13:41:19.845Z,98408.47
2022-12-14T13:42:57.182Z,98405.00
2022-12-14T13:44:37.469Z,98397.34
2022-12-14T13:45:49.857Z,98396.53
2022-12-14T13:47:05.856Z,98391.19
2022-12-14T13:48:27.698Z,98391.97
2022-12-14T13:49:36.973Z,98385.06
2022-12-14T13:50:54.340Z,98382.44
2022-12-14T13:52:03.224Z,98371.94
2022-12-14T13:53:22.982Z,98370.22
2022-12-14T13:54:37.916Z,98370.00
2022-12-14T13:55:57.227Z,98366.59
2022-12-14T13:57:09.589Z,98364.84
2022-12-14T13:58:45.810Z,98366.50
2022-12-14T13:59:53.752Z,98367.41
2022-12-14T14:01:07.652Z,98365.81
2022-12-14T14:02:32.806Z,98363.16
2022-12-14T14:03:37.057Z,98362.41
2022-12-14T14:04:42.909Z,98363.28
2022-12-14T14:05:46.702Z,98352.88
2022-12-14T14:06:53.516Z,98346.06
2022-12-14T14:08:32.141Z,98340.00
2022-12-14T14:09:38.408Z,98350.41
2022-12-14T14:10:42.665Z,98353.00
2022-12-14T14:12:14.854Z,98340.28
2022-12-14T14:13:28.628Z,98345.38
2022-12-14T14:15:02.537Z,98337.69
2022-12-14T14:16:29.305Z,98332.50
2022-12-14T14:17:44.701Z,98320.38
2022-12-14T14:19:30.156Z,98324.72
2022-12-14T14:21:11.509Z,98334.31
2022-12-14T14:22:28.503Z,98330.22
2022-12-14T14:23:35.427Z,98322.59
2022-12-14T14:25:14.299Z,98331.22